sensor_id;sensor_type;location;lat;lon;timestamp;P1;durP1;ratioP1;P2;durP2;ratioP2
84315;SDS011;74496;52.236;5.164;2024-02-26T00:00:29;2.78;;;2.25;;
84315;SDS011;74496;52.236;5.164;2024-02-26T00:02:56;3.38;;;2.20;;
84315;SDS011;74496;52.236;5.164;2024-02-26T00:05:22;1.92;;;1.83;;
84315;SDS011;74496;52.236;5.164;2024-02-26T00:07:49;3.37;;;2.17;;
84315;SDS011;74496;52.236;5.164;2024-02-26T00:10:16;3.55;;;2.10;;
84315;SDS011;74496;52.236;5.164;2024-02-26T00:12:42;3.38;;;1.95;;
84315;SDS011;74496;52.236;5.164;2024-02-26T00:15:09;1.90;;;1.80;;
84315;SDS011;74496;52.236;5.164;2024-02-26T00:17:37;4.68;;;2.40;;
84315;SDS011;74496;52.236;5.164;2024-02-26T00:20:05;2.67;;;2.20;;
84315;SDS011;74496;52.236;5.164;2024-02-26T00:22:33;3.13;;;2.40;;
84315;SDS011;74496;52.236;5.164;2024-02-26T00:25:00;2.42;;;2.17;;
84315;SDS011;74496;52.236;5.164;2024-02-26T00:27:27;3.05;;;1.90;;
84315;SDS011;74496;52.236;5.164;2024-02-26T00:29:53;3.40;;;2.40;;
84315;SDS011;74496;52.236;5.164;2024-02-26T00:32:20;4.60;;;2.50;;
84315;SDS011;74496;52.236;5.164;2024-02-26T00:34:48;2.53;;;2.33;;
84315;SDS011;74496;52.236;5.164;2024-02-26T00:37:15;2.88;;;2.60;;
84315;SDS011;74496;52.236;5.164;2024-02-26T00:39:42;2.88;;;2.50;;
84315;SDS011;74496;52.236;5.164;2024-02-26T00:42:09;3.85;;;2.60;;
84315;SDS011;74496;52.236;5.164;2024-02-26T00:44:36;5.50;;;2.87;;
84315;SDS011;74496;52.236;5.164;2024-02-26T00:47:03;3.05;;;2.85;;
84315;SDS011;74496;52.236;5.164;2024-02-26T00:49:30;3.05;;;2.85;;
84315;SDS011;74496;52.236;5.164;2024-02-26T00:51:58;4.90;;;3.45;;
84315;SDS011;74496;52.236;5.164;2024-02-26T00:54:24;3.80;;;3.50;;
84315;SDS011;74496;52.236;5.164;2024-02-26T00:56:51;3.70;;;3.37;;
84315;SDS011;74496;52.236;5.164;2024-02-26T00:59:18;4.20;;;2.97;;
84315;SDS011;74496;52.236;5.164;2024-02-26T01:01:44;3.95;;;3.65;;
84315;SDS011;74496;52.236;5.164;2024-02-26T01:04:11;4.07;;;3.35;;
84315;SDS011;74496;52.236;5.164;2024-02-26T01:06:38;4.32;;;3.75;;
84315;SDS011;74496;52.236;5.164;2024-02-26T01:09:06;4.30;;;3.40;;
84315;SDS011;74496;52.236;5.164;2024-02-26T01:11:33;3.83;;;3.53;;
84315;SDS011;74496;52.236;5.164;2024-02-26T01:14:00;4.45;;;3.88;;
84315;SDS011;74496;52.236;5.164;2024-02-26T01:16:26;4.22;;;3.85;;
84315;SDS011;74496;52.236;5.164;2024-02-26T01:18:54;5.82;;;3.95;;
84315;SDS011;74496;52.236;5.164;2024-02-26T01:21:21;4.22;;;3.83;;
84315;SDS011;74496;52.236;5.164;2024-02-26T01:23:47;4.20;;;3.90;;
84315;SDS011;74496;52.236;5.164;2024-02-26T01:26:15;4.68;;;4.28;;
84315;SDS011;74496;52.236;5.164;2024-02-26T01:28:42;5.88;;;4.47;;
84315;SDS011;74496;52.236;5.164;2024-02-26T01:31:09;5.30;;;4.53;;
84315;SDS011;74496;52.236;5.164;2024-02-26T01:33:36;6.75;;;4.97;;
84315;SDS011;74496;52.236;5.164;2024-02-26T01:36:03;5.03;;;4.63;;
84315;SDS011;74496;52.236;5.164;2024-02-26T01:38:30;5.13;;;4.72;;
84315;SDS011;74496;52.236;5.164;2024-02-26T01:40:56;5.53;;;5.03;;
84315;SDS011;74496;52.236;5.164;2024-02-26T01:43:24;7.72;;;5.63;;
84315;SDS011;74496;52.236;5.164;2024-02-26T01:45:51;5.65;;;5.13;;
84315;SDS011;74496;52.236;5.164;2024-02-26T01:48:18;5.53;;;5.05;;
84315;SDS011;74496;52.236;5.164;2024-02-26T01:50:44;5.30;;;4.78;;
84315;SDS011;74496;52.236;5.164;2024-02-26T01:53:11;7.50;;;5.57;;
84315;SDS011;74496;52.236;5.164;2024-02-26T01:55:38;8.38;;;5.75;;
84315;SDS011;74496;52.236;5.164;2024-02-26T01:58:06;6.60;;;5.53;;
84315;SDS011;74496;52.236;5.164;2024-02-26T02:00:34;5.28;;;4.78;;
84315;SDS011;74496;52.236;5.164;2024-02-26T02:03:01;5.97;;;5.45;;
84315;SDS011;74496;52.236;5.164;2024-02-26T02:05:29;6.60;;;5.07;;
84315;SDS011;74496;52.236;5.164;2024-02-26T02:07:57;6.75;;;5.50;;
84315;SDS011;74496;52.236;5.164;2024-02-26T02:10:24;5.07;;;4.72;;
84315;SDS011;74496;52.236;5.164;2024-02-26T02:12:53;6.78;;;5.45;;
84315;SDS011;74496;52.236;5.164;2024-02-26T02:15:19;5.40;;;5.00;;
84315;SDS011;74496;52.236;5.164;2024-02-26T02:17:48;5.20;;;4.70;;
84315;SDS011;74496;52.236;5.164;2024-02-26T02:20:15;5.53;;;5.03;;
84315;SDS011;74496;52.236;5.164;2024-02-26T02:22:44;7.18;;;5.43;;
84315;SDS011;74496;52.236;5.164;2024-02-26T02:25:11;5.95;;;5.35;;
84315;SDS011;74496;52.236;5.164;2024-02-26T02:27:38;6.38;;;5.78;;
84315;SDS011;74496;52.236;5.164;2024-02-26T02:30:06;6.22;;;5.63;;
84315;SDS011;74496;52.236;5.164;2024-02-26T02:32:35;12.52;;;5.22;;
84315;SDS011;74496;52.236;5.164;2024-02-26T02:35:04;6.40;;;5.63;;
84315;SDS011;74496;52.236;5.164;2024-02-26T02:37:32;6.38;;;5.28;;
84315;SDS011;74496;52.236;5.164;2024-02-26T02:40:00;5.70;;;5.18;;
84315;SDS011;74496;52.236;5.164;2024-02-26T02:42:28;6.80;;;5.47;;
84315;SDS011;74496;52.236;5.164;2024-02-26T02:44:54;7.10;;;5.65;;
84315;SDS011;74496;52.236;5.164;2024-02-26T02:47:21;5.38;;;4.93;;
84315;SDS011;74496;52.236;5.164;2024-02-26T02:49:48;6.40;;;5.90;;
84315;SDS011;74496;52.236;5.164;2024-02-26T02:52:14;6.32;;;5.72;;
84315;SDS011;74496;52.236;5.164;2024-02-26T02:54:41;6.57;;;5.93;;
84315;SDS011;74496;52.236;5.164;2024-02-26T02:57:09;6.47;;;5.88;;
84315;SDS011;74496;52.236;5.164;2024-02-26T02:59:36;6.82;;;5.85;;
84315;SDS011;74496;52.236;5.164;2024-02-26T03:02:03;6.55;;;5.95;;
84315;SDS011;74496;52.236;5.164;2024-02-26T03:04:31;6.35;;;5.70;;
84315;SDS011;74496;52.236;5.164;2024-02-26T03:06:58;7.70;;;5.60;;
84315;SDS011;74496;52.236;5.164;2024-02-26T03:09:25;6.43;;;5.85;;
84315;SDS011;74496;52.236;5.164;2024-02-26T03:11:52;6.97;;;6.35;;
84315;SDS011;74496;52.236;5.164;2024-02-26T03:14:20;6.90;;;5.78;;
84315;SDS011;74496;52.236;5.164;2024-02-26T03:16:47;6.75;;;6.15;;
84315;SDS011;74496;52.236;5.164;2024-02-26T03:19:14;6.53;;;5.93;;
84315;SDS011;74496;52.236;5.164;2024-02-26T03:21:40;7.13;;;6.40;;
84315;SDS011;74496;52.236;5.164;2024-02-26T03:24:07;7.72;;;6.70;;
84315;SDS011;74496;52.236;5.164;2024-02-26T03:26:35;7.03;;;6.32;;
84315;SDS011;74496;52.236;5.164;2024-02-26T03:29:02;6.97;;;6.30;;
84315;SDS011;74496;52.236;5.164;2024-02-26T03:31:30;7.57;;;6.80;;
84315;SDS011;74496;52.236;5.164;2024-02-26T03:33:57;8.75;;;6.50;;
84315;SDS011;74496;52.236;5.164;2024-02-26T03:36:23;7.82;;;7.13;;
84315;SDS011;74496;52.236;5.164;2024-02-26T03:38:50;7.10;;;6.40;;
84315;SDS011;74496;52.236;5.164;2024-02-26T03:41:17;7.20;;;6.60;;
84315;SDS011;74496;52.236;5.164;2024-02-26T03:43:43;8.38;;;6.97;;
84315;SDS011;74496;52.236;5.164;2024-02-26T03:46:10;8.40;;;7.28;;
84315;SDS011;74496;52.236;5.164;2024-02-26T03:48:40;7.53;;;6.75;;
84315;SDS011;74496;52.236;5.164;2024-02-26T03:51:08;10.73;;;7.05;;
84315;SDS011;74496;52.236;5.164;2024-02-26T03:53:35;7.55;;;6.85;;
84315;SDS011;74496;52.236;5.164;2024-02-26T03:56:03;7.35;;;6.65;;
84315;SDS011;74496;52.236;5.164;2024-02-26T03:58:30;7.75;;;6.88;;
84315;SDS011;74496;52.236;5.164;2024-02-26T04:00:57;11.73;;;7.63;;
84315;SDS011;74496;52.236;5.164;2024-02-26T04:03:23;7.55;;;6.85;;
84315;SDS011;74496;52.236;5.164;2024-02-26T04:05:52;6.63;;;6.13;;
84315;SDS011;74496;52.236;5.164;2024-02-26T04:08:18;8.75;;;6.80;;
84315;SDS011;74496;52.236;5.164;2024-02-26T04:10:45;7.78;;;6.90;;
84315;SDS011;74496;52.236;5.164;2024-02-26T04:13:12;7.07;;;6.37;;
84315;SDS011;74496;52.236;5.164;2024-02-26T04:15:38;7.53;;;6.82;;
84315;SDS011;74496;52.236;5.164;2024-02-26T04:18:05;7.50;;;6.80;;
84315;SDS011;74496;52.236;5.164;2024-02-26T04:20:32;7.95;;;6.28;;
84315;SDS011;74496;52.236;5.164;2024-02-26T04:23:00;8.30;;;6.80;;
84315;SDS011;74496;52.236;5.164;2024-02-26T04:25:26;8.20;;;6.40;;
84315;SDS011;74496;52.236;5.164;2024-02-26T04:27:53;8.05;;;7.25;;
84315;SDS011;74496;52.236;5.164;2024-02-26T04:30:20;9.63;;;7.13;;
84315;SDS011;74496;52.236;5.164;2024-02-26T04:32:47;7.07;;;6.38;;
84315;SDS011;74496;52.236;5.164;2024-02-26T04:35:13;7.43;;;6.65;;
84315;SDS011;74496;52.236;5.164;2024-02-26T04:37:40;7.23;;;6.50;;
84315;SDS011;74496;52.236;5.164;2024-02-26T04:40:09;7.47;;;6.72;;
84315;SDS011;74496;52.236;5.164;2024-02-26T04:42:36;8.82;;;7.18;;
84315;SDS011;74496;52.236;5.164;2024-02-26T04:45:03;7.20;;;6.50;;
84315;SDS011;74496;52.236;5.164;2024-02-26T04:47:30;8.18;;;7.05;;
84315;SDS011;74496;52.236;5.164;2024-02-26T04:49:56;9.30;;;7.00;;
84315;SDS011;74496;52.236;5.164;2024-02-26T04:52:23;8.35;;;7.15;;
84315;SDS011;74496;52.236;5.164;2024-02-26T04:54:50;7.60;;;6.85;;
84315;SDS011;74496;52.236;5.164;2024-02-26T04:57:18;8.18;;;7.38;;
84315;SDS011;74496;52.236;5.164;2024-02-26T04:59:44;8.05;;;6.93;;
84315;SDS011;74496;52.236;5.164;2024-02-26T05:02:11;7.80;;;7.05;;
84315;SDS011;74496;52.236;5.164;2024-02-26T05:04:38;8.48;;;7.65;;
84315;SDS011;74496;52.236;5.164;2024-02-26T05:07:04;8.73;;;7.90;;
84315;SDS011;74496;52.236;5.164;2024-02-26T05:09:31;8.95;;;7.40;;
84315;SDS011;74496;52.236;5.164;2024-02-26T05:11:58;8.40;;;7.40;;
84315;SDS011;74496;52.236;5.164;2024-02-26T05:14:26;12.32;;;7.75;;
84315;SDS011;74496;52.236;5.164;2024-02-26T05:16:52;8.70;;;7.80;;
84315;SDS011;74496;52.236;5.164;2024-02-26T05:19:19;8.70;;;7.70;;
84315;SDS011;74496;52.236;5.164;2024-02-26T05:21:46;9.35;;;8.40;;
84315;SDS011;74496;52.236;5.164;2024-02-26T05:24:14;10.35;;;8.32;;
84315;SDS011;74496;52.236;5.164;2024-02-26T05:26:42;11.05;;;8.20;;
84315;SDS011;74496;52.236;5.164;2024-02-26T05:29:09;11.27;;;7.68;;
84315;SDS011;74496;52.236;5.164;2024-02-26T05:31:37;10.90;;;8.93;;
84315;SDS011;74496;52.236;5.164;2024-02-26T05:34:04;11.82;;;8.95;;
84315;SDS011;74496;52.236;5.164;2024-02-26T05:36:30;13.27;;;8.77;;
84315;SDS011;74496;52.236;5.164;2024-02-26T05:38:58;10.00;;;8.87;;
84315;SDS011;74496;52.236;5.164;2024-02-26T05:41:25;14.07;;;9.20;;
84315;SDS011;74496;52.236;5.164;2024-02-26T05:43:52;13.30;;;9.80;;
84315;SDS011;74496;52.236;5.164;2024-02-26T05:46:19;12.70;;;9.63;;
84315;SDS011;74496;52.236;5.164;2024-02-26T05:48:51;11.65;;;10.07;;
84315;SDS011;74496;52.236;5.164;2024-02-26T05:51:18;11.97;;;9.43;;
84315;SDS011;74496;52.236;5.164;2024-02-26T05:53:45;14.50;;;10.90;;
84315;SDS011;74496;52.236;5.164;2024-02-26T05:56:18;13.82;;;10.70;;
84315;SDS011;74496;52.236;5.164;2024-02-26T05:58:45;14.20;;;10.98;;
84315;SDS011;74496;52.236;5.164;2024-02-26T06:01:12;13.50;;;10.50;;
84315;SDS011;74496;52.236;5.164;2024-02-26T06:03:39;12.60;;;9.55;;
84315;SDS011;74496;52.236;5.164;2024-02-26T06:06:07;17.60;;;11.50;;
84315;SDS011;74496;52.236;5.164;2024-02-26T06:08:34;18.23;;;11.00;;
84315;SDS011;74496;52.236;5.164;2024-02-26T06:11:04;15.65;;;11.40;;
84315;SDS011;74496;52.236;5.164;2024-02-26T06:13:31;15.13;;;11.05;;
84315;SDS011;74496;52.236;5.164;2024-02-26T06:15:58;13.87;;;11.77;;
84315;SDS011;74496;52.236;5.164;2024-02-26T06:18:24;14.77;;;11.50;;
84315;SDS011;74496;52.236;5.164;2024-02-26T06:20:51;14.18;;;11.57;;
84315;SDS011;74496;52.236;5.164;2024-02-26T06:23:19;19.67;;;12.13;;
84315;SDS011;74496;52.236;5.164;2024-02-26T06:25:46;14.50;;;12.13;;
84315;SDS011;74496;52.236;5.164;2024-02-26T06:28:13;15.68;;;12.02;;
84315;SDS011;74496;52.236;5.164;2024-02-26T06:30:40;17.88;;;13.00;;
84315;SDS011;74496;52.236;5.164;2024-02-26T06:33:06;18.05;;;13.35;;
84315;SDS011;74496;52.236;5.164;2024-02-26T06:35:33;17.83;;;13.43;;
84315;SDS011;74496;52.236;5.164;2024-02-26T06:37:59;17.33;;;13.35;;
84315;SDS011;74496;52.236;5.164;2024-02-26T06:40:28;20.10;;;13.53;;
84315;SDS011;74496;52.236;5.164;2024-02-26T06:42:54;18.17;;;14.32;;
84315;SDS011;74496;52.236;5.164;2024-02-26T06:45:21;16.38;;;12.95;;
84315;SDS011;74496;52.236;5.164;2024-02-26T06:47:48;16.55;;;13.82;;
84315;SDS011;74496;52.236;5.164;2024-02-26T06:50:15;18.67;;;13.40;;
84315;SDS011;74496;52.236;5.164;2024-02-26T06:52:43;16.47;;;13.17;;
84315;SDS011;74496;52.236;5.164;2024-02-26T06:55:10;16.58;;;12.52;;
84315;SDS011;74496;52.236;5.164;2024-02-26T06:57:39;16.85;;;13.18;;
84315;SDS011;74496;52.236;5.164;2024-02-26T07:00:06;14.05;;;12.43;;
84315;SDS011;74496;52.236;5.164;2024-02-26T07:02:37;15.15;;;12.13;;
84315;SDS011;74496;52.236;5.164;2024-02-26T07:05:04;16.40;;;12.48;;
84315;SDS011;74496;52.236;5.164;2024-02-26T07:07:31;13.68;;;11.73;;
84315;SDS011;74496;52.236;5.164;2024-02-26T07:09:58;14.15;;;12.68;;
84315;SDS011;74496;52.236;5.164;2024-02-26T07:12:25;13.90;;;11.50;;
84315;SDS011;74496;52.236;5.164;2024-02-26T07:14:53;13.48;;;11.85;;
84315;SDS011;74496;52.236;5.164;2024-02-26T07:17:20;16.83;;;11.48;;
84315;SDS011;74496;52.236;5.164;2024-02-26T07:19:46;14.57;;;10.73;;
84315;SDS011;74496;52.236;5.164;2024-02-26T07:22:13;16.90;;;11.77;;
84315;SDS011;74496;52.236;5.164;2024-02-26T07:24:40;12.82;;;10.10;;
84315;SDS011;74496;52.236;5.164;2024-02-26T07:27:07;15.40;;;10.60;;
84315;SDS011;74496;52.236;5.164;2024-02-26T07:29:33;11.15;;;9.75;;
84315;SDS011;74496;52.236;5.164;2024-02-26T07:32:02;10.93;;;9.45;;
84315;SDS011;74496;52.236;5.164;2024-02-26T07:34:28;10.38;;;9.25;;
84315;SDS011;74496;52.236;5.164;2024-02-26T07:36:55;10.77;;;8.95;;
84315;SDS011;74496;52.236;5.164;2024-02-26T07:39:22;10.20;;;9.10;;
84315;SDS011;74496;52.236;5.164;2024-02-26T07:41:49;11.35;;;9.13;;
84315;SDS011;74496;52.236;5.164;2024-02-26T07:44:17;9.43;;;8.52;;
84315;SDS011;74496;52.236;5.164;2024-02-26T07:46:44;9.98;;;8.98;;
84315;SDS011;74496;52.236;5.164;2024-02-26T07:49:12;10.00;;;8.52;;
84315;SDS011;74496;52.236;5.164;2024-02-26T07:51:39;9.55;;;8.23;;
84315;SDS011;74496;52.236;5.164;2024-02-26T07:54:05;9.77;;;8.82;;
84315;SDS011;74496;52.236;5.164;2024-02-26T07:56:32;8.20;;;7.47;;
84315;SDS011;74496;52.236;5.164;2024-02-26T07:58:59;9.20;;;8.18;;
84315;SDS011;74496;52.236;5.164;2024-02-26T08:01:25;8.93;;;7.38;;
84315;SDS011;74496;52.236;5.164;2024-02-26T08:03:52;9.35;;;7.05;;
84315;SDS011;74496;52.236;5.164;2024-02-26T08:06:20;7.57;;;6.90;;
84315;SDS011;74496;52.236;5.164;2024-02-26T08:08:47;8.55;;;7.68;;
84315;SDS011;74496;52.236;5.164;2024-02-26T08:11:15;8.07;;;7.30;;
84315;SDS011;74496;52.236;5.164;2024-02-26T08:13:42;8.80;;;7.47;;
84315;SDS011;74496;52.236;5.164;2024-02-26T08:16:08;7.90;;;6.97;;
84315;SDS011;74496;52.236;5.164;2024-02-26T08:18:35;8.20;;;6.47;;
84315;SDS011;74496;52.236;5.164;2024-02-26T08:21:02;7.60;;;6.70;;
84315;SDS011;74496;52.236;5.164;2024-02-26T08:23:31;7.55;;;5.88;;
84315;SDS011;74496;52.236;5.164;2024-02-26T08:25:58;7.20;;;6.13;;
84315;SDS011;74496;52.236;5.164;2024-02-26T08:28:24;6.95;;;5.70;;
84315;SDS011;74496;52.236;5.164;2024-02-26T08:30:51;6.00;;;5.40;;
84315;SDS011;74496;52.236;5.164;2024-02-26T08:33:18;6.57;;;5.95;;
84315;SDS011;74496;52.236;5.164;2024-02-26T08:35:44;7.03;;;5.40;;
84315;SDS011;74496;52.236;5.164;2024-02-26T08:38:11;5.82;;;5.22;;
84315;SDS011;74496;52.236;5.164;2024-02-26T08:40:39;6.38;;;5.75;;
84315;SDS011;74496;52.236;5.164;2024-02-26T08:43:06;6.50;;;4.75;;
84315;SDS011;74496;52.236;5.164;2024-02-26T08:45:33;7.97;;;5.30;;
84315;SDS011;74496;52.236;5.164;2024-02-26T08:48:00;9.30;;;4.60;;
84315;SDS011;74496;52.236;5.164;2024-02-26T08:50:27;5.53;;;4.93;;
84315;SDS011;74496;52.236;5.164;2024-02-26T08:52:54;5.22;;;4.60;;
84315;SDS011;74496;52.236;5.164;2024-02-26T08:55:21;5.32;;;4.47;;
84315;SDS011;74496;52.236;5.164;2024-02-26T08:57:49;4.35;;;4.03;;
84315;SDS011;74496;52.236;5.164;2024-02-26T09:00:16;4.40;;;4.00;;
84315;SDS011;74496;52.236;5.164;2024-02-26T09:02:45;7.72;;;4.10;;
84315;SDS011;74496;52.236;5.164;2024-02-26T09:05:12;7.22;;;4.43;;
84315;SDS011;74496;52.236;5.164;2024-02-26T09:07:38;4.38;;;4.00;;
84315;SDS011;74496;52.236;5.164;2024-02-26T09:10:05;4.45;;;4.05;;
84315;SDS011;74496;52.236;5.164;2024-02-26T09:12:34;5.50;;;3.70;;
84315;SDS011;74496;52.236;5.164;2024-02-26T09:15:02;4.60;;;3.78;;
84315;SDS011;74496;52.236;5.164;2024-02-26T09:17:29;3.75;;;3.35;;
84315;SDS011;74496;52.236;5.164;2024-02-26T09:19:56;4.20;;;3.90;;
84315;SDS011;74496;52.236;5.164;2024-02-26T09:22:22;4.28;;;3.88;;
84315;SDS011;74496;52.236;5.164;2024-02-26T09:24:49;3.92;;;3.63;;
84315;SDS011;74496;52.236;5.164;2024-02-26T09:27:17;3.80;;;3.45;;
84315;SDS011;74496;52.236;5.164;2024-02-26T09:29:44;5.28;;;3.83;;
84315;SDS011;74496;52.236;5.164;2024-02-26T09:32:13;4.00;;;3.70;;
84315;SDS011;74496;52.236;5.164;2024-02-26T09:34:40;3.92;;;3.58;;
84315;SDS011;74496;52.236;5.164;2024-02-26T09:37:07;4.43;;;4.03;;
84315;SDS011;74496;52.236;5.164;2024-02-26T09:39:33;3.70;;;3.40;;
84315;SDS011;74496;52.236;5.164;2024-02-26T09:42:01;4.45;;;4.05;;
84315;SDS011;74496;52.236;5.164;2024-02-26T09:44:31;5.72;;;3.75;;
84315;SDS011;74496;52.236;5.164;2024-02-26T09:47:03;3.75;;;3.50;;
84315;SDS011;74496;52.236;5.164;2024-02-26T09:49:35;3.60;;;3.30;;
84315;SDS011;74496;52.236;5.164;2024-02-26T09:52:03;4.80;;;3.58;;
84315;SDS011;74496;52.236;5.164;2024-02-26T09:54:31;4.28;;;3.88;;
84315;SDS011;74496;52.236;5.164;2024-02-26T09:56:59;4.93;;;4.17;;
84315;SDS011;74496;52.236;5.164;2024-02-26T09:59:28;4.60;;;4.20;;
84315;SDS011;74496;52.236;5.164;2024-02-26T10:01:55;7.63;;;3.60;;
84315;SDS011;74496;52.236;5.164;2024-02-26T10:04:25;4.28;;;3.97;;
84315;SDS011;74496;52.236;5.164;2024-02-26T10:06:53;5.05;;;4.00;;
84315;SDS011;74496;52.236;5.164;2024-02-26T10:09:21;4.37;;;4.07;;
84315;SDS011;74496;52.236;5.164;2024-02-26T10:11:47;4.03;;;3.72;;
84315;SDS011;74496;52.236;5.164;2024-02-26T10:14:15;4.03;;;3.70;;
84315;SDS011;74496;52.236;5.164;2024-02-26T10:16:42;4.80;;;4.40;;
84315;SDS011;74496;52.236;5.164;2024-02-26T10:19:09;4.35;;;4.05;;
84315;SDS011;74496;52.236;5.164;2024-02-26T10:21:54;4.07;;;3.67;;
84315;SDS011;74496;52.236;5.164;2024-02-26T10:24:22;6.50;;;3.83;;
84315;SDS011;74496;52.236;5.164;2024-02-26T10:26:49;4.70;;;4.15;;
84315;SDS011;74496;52.236;5.164;2024-02-26T10:29:16;4.63;;;3.65;;
84315;SDS011;74496;52.236;5.164;2024-02-26T10:31:42;5.15;;;4.65;;
84315;SDS011;74496;52.236;5.164;2024-02-26T10:34:09;4.47;;;4.07;;
84315;SDS011;74496;52.236;5.164;2024-02-26T10:36:36;4.38;;;3.97;;
84315;SDS011;74496;52.236;5.164;2024-02-26T10:39:07;4.75;;;3.47;;
84315;SDS011;74496;52.236;5.164;2024-02-26T10:41:34;4.40;;;4.00;;
84315;SDS011;74496;52.236;5.164;2024-02-26T10:44:01;4.50;;;4.10;;
84315;SDS011;74496;52.236;5.164;2024-02-26T10:46:27;4.95;;;3.95;;
84315;SDS011;74496;52.236;5.164;2024-02-26T10:48:54;4.30;;;3.90;;
84315;SDS011;74496;52.236;5.164;2024-02-26T10:51:25;4.90;;;4.38;;
84315;SDS011;74496;52.236;5.164;2024-02-26T10:53:54;4.28;;;3.88;;
84315;SDS011;74496;52.236;5.164;2024-02-26T10:56:24;4.60;;;3.95;;
84315;SDS011;74496;52.236;5.164;2024-02-26T10:58:54;4.57;;;4.17;;
84315;SDS011;74496;52.236;5.164;2024-02-26T11:01:22;5.03;;;4.63;;
84315;SDS011;74496;52.236;5.164;2024-02-26T11:03:50;4.15;;;3.75;;
84315;SDS011;74496;52.236;5.164;2024-02-26T11:06:18;5.13;;;3.92;;
84315;SDS011;74496;52.236;5.164;2024-02-26T11:08:47;4.05;;;3.70;;
84315;SDS011;74496;52.236;5.164;2024-02-26T11:11:15;4.73;;;3.70;;
84315;SDS011;74496;52.236;5.164;2024-02-26T11:13:45;4.05;;;3.72;;
84315;SDS011;74496;52.236;5.164;2024-02-26T11:16:16;4.20;;;3.90;;
84315;SDS011;74496;52.236;5.164;2024-02-26T11:18:44;6.22;;;4.20;;
84315;SDS011;74496;52.236;5.164;2024-02-26T11:21:14;3.95;;;3.65;;
84315;SDS011;74496;52.236;5.164;2024-02-26T11:23:42;4.87;;;4.20;;
84315;SDS011;74496;52.236;5.164;2024-02-26T11:26:09;4.10;;;3.80;;
84315;SDS011;74496;52.236;5.164;2024-02-26T11:28:37;3.90;;;3.60;;
84315;SDS011;74496;52.236;5.164;2024-02-26T11:31:07;4.05;;;3.65;;
84315;SDS011;74496;52.236;5.164;2024-02-26T11:33:34;3.80;;;3.50;;
84315;SDS011;74496;52.236;5.164;2024-02-26T11:36:02;5.50;;;4.10;;
84315;SDS011;74496;52.236;5.164;2024-02-26T11:38:34;4.75;;;3.83;;
84315;SDS011;74496;52.236;5.164;2024-02-26T11:41:00;4.22;;;3.85;;
84315;SDS011;74496;52.236;5.164;2024-02-26T11:46:26;3.85;;;3.55;;
84315;SDS011;74496;52.236;5.164;2024-02-26T11:48:54;3.90;;;3.60;;
84315;SDS011;74496;52.236;5.164;2024-02-26T11:51:24;3.78;;;3.45;;
84315;SDS011;74496;52.236;5.164;2024-02-26T11:53:52;4.43;;;3.95;;
84315;SDS011;74496;52.236;5.164;2024-02-26T11:56:22;3.85;;;3.47;;
84315;SDS011;74496;52.236;5.164;2024-02-26T11:58:52;4.20;;;3.53;;
84315;SDS011;74496;52.236;5.164;2024-02-26T12:01:36;4.30;;;3.27;;
84315;SDS011;74496;52.236;5.164;2024-02-26T12:04:04;4.10;;;3.80;;
84315;SDS011;74496;52.236;5.164;2024-02-26T12:06:31;4.97;;;3.50;;
84315;SDS011;74496;52.236;5.164;2024-02-26T12:09:07;5.90;;;3.40;;
84315;SDS011;74496;52.236;5.164;2024-02-26T12:11:36;3.42;;;3.15;;
84315;SDS011;74496;52.236;5.164;2024-02-26T12:14:05;3.93;;;3.57;;
84315;SDS011;74496;52.236;5.164;2024-02-26T12:16:37;4.55;;;3.22;;
84315;SDS011;74496;52.236;5.164;2024-02-26T12:19:05;3.30;;;3.10;;
84315;SDS011;74496;52.236;5.164;2024-02-26T12:21:33;3.08;;;2.88;;
84315;SDS011;74496;52.236;5.164;2024-02-26T12:24:11;4.40;;;3.47;;
84315;SDS011;74496;52.236;5.164;2024-02-26T12:26:38;6.23;;;3.17;;
84315;SDS011;74496;52.236;5.164;2024-02-26T12:29:06;3.53;;;3.22;;
84315;SDS011;74496;52.236;5.164;2024-02-26T12:31:33;3.60;;;3.30;;
84315;SDS011;74496;52.236;5.164;2024-02-26T12:34:04;3.47;;;3.25;;
84315;SDS011;74496;52.236;5.164;2024-02-26T12:36:31;3.60;;;3.30;;
84315;SDS011;74496;52.236;5.164;2024-02-26T12:38:59;3.67;;;3.37;;
84315;SDS011;74496;52.236;5.164;2024-02-26T12:41:27;4.60;;;3.40;;
84315;SDS011;74496;52.236;5.164;2024-02-26T12:43:55;9.73;;;3.28;;
84315;SDS011;74496;52.236;5.164;2024-02-26T12:46:22;2.92;;;2.70;;
84315;SDS011;74496;52.236;5.164;2024-02-26T12:48:49;3.47;;;3.17;;
84315;SDS011;74496;52.236;5.164;2024-02-26T12:51:17;2.87;;;2.67;;
84315;SDS011;74496;52.236;5.164;2024-02-26T12:53:46;3.60;;;2.85;;
84315;SDS011;74496;52.236;5.164;2024-02-26T12:56:15;3.08;;;2.78;;
84315;SDS011;74496;52.236;5.164;2024-02-26T12:58:42;2.88;;;2.67;;
84315;SDS011;74496;52.236;5.164;2024-02-26T13:01:14;3.50;;;3.30;;
84315;SDS011;74496;52.236;5.164;2024-02-26T13:03:41;3.33;;;3.03;;
84315;SDS011;74496;52.236;5.164;2024-02-26T13:06:09;3.85;;;3.45;;
84315;SDS011;74496;52.236;5.164;2024-02-26T13:08:37;4.18;;;2.88;;
84315;SDS011;74496;52.236;5.164;2024-02-26T13:11:04;3.10;;;2.83;;
84315;SDS011;74496;52.236;5.164;2024-02-26T13:13:31;3.85;;;3.13;;
84315;SDS011;74496;52.236;5.164;2024-02-26T13:16:01;2.80;;;2.60;;
84315;SDS011;74496;52.236;5.164;2024-02-26T13:18:29;3.35;;;3.08;;
84315;SDS011;74496;52.236;5.164;2024-02-26T13:21:06;3.65;;;3.15;;
84315;SDS011;74496;52.236;5.164;2024-02-26T13:23:34;3.03;;;2.75;;
84315;SDS011;74496;52.236;5.164;2024-02-26T13:26:02;3.30;;;3.00;;
84315;SDS011;74496;52.236;5.164;2024-02-26T13:28:29;3.33;;;3.13;;
84315;SDS011;74496;52.236;5.164;2024-02-26T13:30:56;3.03;;;2.75;;
84315;SDS011;74496;52.236;5.164;2024-02-26T13:33:25;4.28;;;2.78;;
84315;SDS011;74496;52.236;5.164;2024-02-26T13:35:53;3.25;;;2.95;;
84315;SDS011;74496;52.236;5.164;2024-02-26T13:38:21;2.88;;;2.67;;
84315;SDS011;74496;52.236;5.164;2024-02-26T13:40:48;5.53;;;2.63;;
84315;SDS011;74496;52.236;5.164;2024-02-26T13:43:17;2.70;;;2.50;;
84315;SDS011;74496;52.236;5.164;2024-02-26T13:45:44;2.97;;;2.75;;
84315;SDS011;74496;52.236;5.164;2024-02-26T13:48:11;3.10;;;2.75;;
84315;SDS011;74496;52.236;5.164;2024-02-26T13:50:39;2.90;;;2.70;;
84315;SDS011;74496;52.236;5.164;2024-02-26T13:53:08;2.97;;;2.63;;
84315;SDS011;74496;52.236;5.164;2024-02-26T13:55:36;3.40;;;2.90;;
84315;SDS011;74496;52.236;5.164;2024-02-26T13:58:03;3.30;;;3.00;;
84315;SDS011;74496;52.236;5.164;2024-02-26T14:00:31;3.30;;;2.70;;
84315;SDS011;74496;52.236;5.164;2024-02-26T14:02:58;2.70;;;2.50;;
84315;SDS011;74496;52.236;5.164;2024-02-26T14:05:25;4.17;;;2.80;;
84315;SDS011;74496;52.236;5.164;2024-02-26T14:07:52;2.88;;;2.50;;
84315;SDS011;74496;52.236;5.164;2024-02-26T14:10:20;2.75;;;2.55;;
84315;SDS011;74496;52.236;5.164;2024-02-26T14:12:46;2.55;;;2.33;;
84315;SDS011;74496;52.236;5.164;2024-02-26T14:15:14;2.65;;;2.20;;
84315;SDS011;74496;52.236;5.164;2024-02-26T14:17:42;2.97;;;2.77;;
84315;SDS011;74496;52.236;5.164;2024-02-26T14:20:09;3.53;;;2.38;;
84315;SDS011;74496;52.236;5.164;2024-02-26T14:22:36;2.53;;;2.33;;
84315;SDS011;74496;52.236;5.164;2024-02-26T14:25:03;4.15;;;2.20;;
84315;SDS011;74496;52.236;5.164;2024-02-26T14:27:32;2.50;;;2.30;;
84315;SDS011;74496;52.236;5.164;2024-02-26T14:29:59;2.90;;;2.53;;
84315;SDS011;74496;52.236;5.164;2024-02-26T14:32:25;3.50;;;2.65;;
84315;SDS011;74496;52.236;5.164;2024-02-26T14:34:55;2.33;;;2.13;;
84315;SDS011;74496;52.236;5.164;2024-02-26T14:37:22;2.58;;;2.17;;
84315;SDS011;74496;52.236;5.164;2024-02-26T14:39:49;2.55;;;2.10;;
84315;SDS011;74496;52.236;5.164;2024-02-26T14:42:17;3.90;;;2.23;;
84315;SDS011;74496;52.236;5.164;2024-02-26T14:44:43;3.35;;;2.20;;
84315;SDS011;74496;52.236;5.164;2024-02-26T14:47:12;2.08;;;1.88;;